In Rescue
 
Open Full Screen Window  High Contrast Mode
Wind Gusting 00 knots
08
January 24, 2020 7:29 PM CST
Present Weather: Unknown Precipitation
Weather Information
Wind Direction
  010 °
Wind Speed
  08 kt (9 mph)
Wind Gust
  00 kt (0 mph)
Altimeter
30.01 in
Visibility
7 SM
Temperature
00° C
32° F
Dewpoint
-02° C
28° F
Humidity
87%
Sky Condition
Overcast @ 5,500 ft
Broken @ 2,000 ft
Broken @ 1,600 ft
MVFR

METAR KDYT 250129Z AUTO 01008KT 7SM UP BKN016 BKN020 OVC055 00/M02 A3001 RMK AO2

FAA Disclaimer: The data displayed is for advisory purposes only and is not to be used for flight planning or operations.